sensor_id;sensor_type;location;lat;lon;timestamp;P1;durP1;ratioP1;P2;durP2;ratioP2
49456;SDS011;35352;51.480;-0.862;2022-08-19T00:01:36;6;;;5;;
49456;SDS011;35352;51.480;-0.862;2022-08-19T00:04:06;4;;;4;;
49456;SDS011;35352;51.480;-0.862;2022-08-19T00:06:36;5;;;3;;
49456;SDS011;35352;51.480;-0.862;2022-08-19T00:09:04;4;;;4;;
49456;SDS011;35352;51.480;-0.862;2022-08-19T00:11:34;5;;;5;;
49456;SDS011;35352;51.480;-0.862;2022-08-19T00:14:02;7;;;6;;
49456;SDS011;35352;51.480;-0.862;2022-08-19T00:16:30;7;;;7;;
49456;SDS011;35352;51.480;-0.862;2022-08-19T00:18:57;4;;;4;;
49456;SDS011;35352;51.480;-0.862;2022-08-19T00:21:25;6;;;6;;
49456;SDS011;35352;51.480;-0.862;2022-08-19T00:23:53;6;;;6;;
49456;SDS011;35352;51.480;-0.862;2022-08-19T00:26:21;7;;;7;;
49456;SDS011;35352;51.480;-0.862;2022-08-19T00:28:48;7;;;7;;
49456;SDS011;35352;51.480;-0.862;2022-08-19T00:31:15;5;;;5;;
49456;SDS011;35352;51.480;-0.862;2022-08-19T00:33:42;5;;;5;;
49456;SDS011;35352;51.480;-0.862;2022-08-19T00:36:10;8;;;6;;
49456;SDS011;35352;51.480;-0.862;2022-08-19T00:38:39;6;;;6;;
49456;SDS011;35352;51.480;-0.862;2022-08-19T00:41:14;2;;;2;;
49456;SDS011;35352;51.480;-0.862;2022-08-19T00:43:50;9;;;8;;
49456;SDS011;35352;51.480;-0.862;2022-08-19T00:46:28;5;;;5;;
49456;SDS011;35352;51.480;-0.862;2022-08-19T00:48:57;6;;;5;;
49456;SDS011;35352;51.480;-0.862;2022-08-19T00:51:25;9;;;7;;
49456;SDS011;35352;51.480;-0.862;2022-08-19T00:53:55;7;;;6;;
49456;SDS011;35352;51.480;-0.862;2022-08-19T00:56:25;5;;;5;;
49456;SDS011;35352;51.480;-0.862;2022-08-19T00:58:53;4;;;4;;
49456;SDS011;35352;51.480;-0.862;2022-08-19T01:01:23;6;;;6;;
49456;SDS011;35352;51.480;-0.862;2022-08-19T01:03:50;6;;;6;;
49456;SDS011;35352;51.480;-0.862;2022-08-19T01:06:18;5;;;5;;
49456;SDS011;35352;51.480;-0.862;2022-08-19T01:08:50;3;;;3;;
49456;SDS011;35352;51.480;-0.862;2022-08-19T01:11:17;5;;;5;;
49456;SDS011;35352;51.480;-0.862;2022-08-19T01:13:45;4;;;4;;
49456;SDS011;35352;51.480;-0.862;2022-08-19T01:16:13;4;;;4;;
49456;SDS011;35352;51.480;-0.862;2022-08-19T01:18:41;4;;;4;;
49456;SDS011;35352;51.480;-0.862;2022-08-19T01:21:15;3;;;3;;
49456;SDS011;35352;51.480;-0.862;2022-08-19T01:23:50;3;;;3;;
49456;SDS011;35352;51.480;-0.862;2022-08-19T01:26:20;3;;;3;;
49456;SDS011;35352;51.480;-0.862;2022-08-19T01:28:50;3;;;3;;
49456;SDS011;35352;51.480;-0.862;2022-08-19T01:31:21;5;;;3;;
49456;SDS011;35352;51.480;-0.862;2022-08-19T01:33:52;6;;;5;;
49456;SDS011;35352;51.480;-0.862;2022-08-19T01:36:22;5;;;5;;
49456;SDS011;35352;51.480;-0.862;2022-08-19T01:38:58;3;;;3;;
49456;SDS011;35352;51.480;-0.862;2022-08-19T01:41:27;5;;;4;;
49456;SDS011;35352;51.480;-0.862;2022-08-19T01:43:55;7;;;6;;
49456;SDS011;35352;51.480;-0.862;2022-08-19T01:46:22;3;;;3;;
49456;SDS011;35352;51.480;-0.862;2022-08-19T01:48:49;5;;;5;;
49456;SDS011;35352;51.480;-0.862;2022-08-19T01:51:15;5;;;4;;
49456;SDS011;35352;51.480;-0.862;2022-08-19T01:53:45;5;;;5;;
49456;SDS011;35352;51.480;-0.862;2022-08-19T01:56:15;4;;;4;;
49456;SDS011;35352;51.480;-0.862;2022-08-19T01:58:44;1;;;1;;
49456;SDS011;35352;51.480;-0.862;2022-08-19T02:01:15;3;;;3;;
49456;SDS011;35352;51.480;-0.862;2022-08-19T02:03:42;2;;;2;;
49456;SDS011;35352;51.480;-0.862;2022-08-19T02:06:10;3;;;2;;
49456;SDS011;35352;51.480;-0.862;2022-08-19T02:08:37;1;;;1;;
49456;SDS011;35352;51.480;-0.862;2022-08-19T02:11:19;3;;;3;;
49456;SDS011;35352;51.480;-0.862;2022-08-19T02:13:48;3;;;3;;
49456;SDS011;35352;51.480;-0.862;2022-08-19T02:16:16;5;;;4;;
49456;SDS011;35352;51.480;-0.862;2022-08-19T02:18:43;7;;;4;;
49456;SDS011;35352;51.480;-0.862;2022-08-19T02:21:12;4;;;4;;
49456;SDS011;35352;51.480;-0.862;2022-08-19T02:23:39;3;;;2;;
49456;SDS011;35352;51.480;-0.862;2022-08-19T02:26:07;3;;;3;;
49456;SDS011;35352;51.480;-0.862;2022-08-19T02:28:35;4;;;3;;
49456;SDS011;35352;51.480;-0.862;2022-08-19T02:31:13;3;;;1;;
49456;SDS011;35352;51.480;-0.862;2022-08-19T02:33:43;4;;;4;;
49456;SDS011;35352;51.480;-0.862;2022-08-19T02:36:12;3;;;3;;
49456;SDS011;35352;51.480;-0.862;2022-08-19T02:38:40;4;;;4;;
49456;SDS011;35352;51.480;-0.862;2022-08-19T02:41:13;0;;;0;;
49456;SDS011;35352;51.480;-0.862;2022-08-19T02:43:42;0;;;0;;
49456;SDS011;35352;51.480;-0.862;2022-08-19T02:46:11;2;;;2;;
49456;SDS011;35352;51.480;-0.862;2022-08-19T02:48:40;2;;;2;;
49456;SDS011;35352;51.480;-0.862;2022-08-19T02:51:17;0;;;0;;
49456;SDS011;35352;51.480;-0.862;2022-08-19T02:53:46;3;;;3;;
49456;SDS011;35352;51.480;-0.862;2022-08-19T02:56:13;4;;;2;;
49456;SDS011;35352;51.480;-0.862;2022-08-19T02:58:41;2;;;2;;
49456;SDS011;35352;51.480;-0.862;2022-08-19T03:01:20;0;;;0;;
49456;SDS011;35352;51.480;-0.862;2022-08-19T03:03:50;1;;;1;;
49456;SDS011;35352;51.480;-0.862;2022-08-19T03:06:17;3;;;2;;
49456;SDS011;35352;51.480;-0.862;2022-08-19T03:08:46;1;;;1;;
49456;SDS011;35352;51.480;-0.862;2022-08-19T03:11:14;0;;;0;;
49456;SDS011;35352;51.480;-0.862;2022-08-19T03:13:44;2;;;2;;
49456;SDS011;35352;51.480;-0.862;2022-08-19T03:16:12;3;;;2;;
49456;SDS011;35352;51.480;-0.862;2022-08-19T03:18:39;2;;;2;;
49456;SDS011;35352;51.480;-0.862;2022-08-19T03:21:15;0;;;0;;
49456;SDS011;35352;51.480;-0.862;2022-08-19T03:23:43;4;;;1;;
49456;SDS011;35352;51.480;-0.862;2022-08-19T03:26:10;1;;;1;;
49456;SDS011;35352;51.480;-0.862;2022-08-19T03:28:38;2;;;2;;
49456;SDS011;35352;51.480;-0.862;2022-08-19T03:31:13;0;;;0;;
49456;SDS011;35352;51.480;-0.862;2022-08-19T03:33:41;0;;;0;;
49456;SDS011;35352;51.480;-0.862;2022-08-19T03:36:11;1;;;1;;
49456;SDS011;35352;51.480;-0.862;2022-08-19T03:38:41;0;;;0;;
49456;SDS011;35352;51.480;-0.862;2022-08-19T03:41:13;0;;;0;;
49456;SDS011;35352;51.480;-0.862;2022-08-19T03:43:43;0;;;0;;
49456;SDS011;35352;51.480;-0.862;2022-08-19T03:46:12;0;;;0;;
49456;SDS011;35352;51.480;-0.862;2022-08-19T03:48:42;0;;;0;;
49456;SDS011;35352;51.480;-0.862;2022-08-19T03:51:15;0;;;0;;
49456;SDS011;35352;51.480;-0.862;2022-08-19T03:53:43;1;;;1;;
49456;SDS011;35352;51.480;-0.862;2022-08-19T03:56:10;0;;;0;;
49456;SDS011;35352;51.480;-0.862;2022-08-19T03:58:37;0;;;0;;
49456;SDS011;35352;51.480;-0.862;2022-08-19T04:01:14;0;;;0;;
49456;SDS011;35352;51.480;-0.862;2022-08-19T04:03:48;0;;;0;;
49456;SDS011;35352;51.480;-0.862;2022-08-19T04:06:16;0;;;0;;
49456;SDS011;35352;51.480;-0.862;2022-08-19T04:08:49;0;;;0;;
49456;SDS011;35352;51.480;-0.862;2022-08-19T04:11:19;0;;;0;;
49456;SDS011;35352;51.480;-0.862;2022-08-19T04:13:48;0;;;0;;
49456;SDS011;35352;51.480;-0.862;2022-08-19T04:16:16;0;;;0;;
49456;SDS011;35352;51.480;-0.862;2022-08-19T04:18:44;0;;;0;;
49456;SDS011;35352;51.480;-0.862;2022-08-19T04:21:15;0;;;0;;
49456;SDS011;35352;51.480;-0.862;2022-08-19T04:23:44;0;;;0;;
49456;SDS011;35352;51.480;-0.862;2022-08-19T04:26:13;0;;;0;;
49456;SDS011;35352;51.480;-0.862;2022-08-19T04:28:40;0;;;0;;
49456;SDS011;35352;51.480;-0.862;2022-08-19T04:31:13;0;;;0;;
49456;SDS011;35352;51.480;-0.862;2022-08-19T04:33:43;0;;;0;;
49456;SDS011;35352;51.480;-0.862;2022-08-19T04:36:15;0;;;0;;
49456;SDS011;35352;51.480;-0.862;2022-08-19T04:38:50;1;;;1;;
49456;SDS011;35352;51.480;-0.862;2022-08-19T04:41:21;0;;;0;;
49456;SDS011;35352;51.480;-0.862;2022-08-19T04:43:49;0;;;0;;
49456;SDS011;35352;51.480;-0.862;2022-08-19T04:46:16;0;;;0;;
49456;SDS011;35352;51.480;-0.862;2022-08-19T04:48:43;0;;;0;;
49456;SDS011;35352;51.480;-0.862;2022-08-19T04:51:13;0;;;0;;
49456;SDS011;35352;51.480;-0.862;2022-08-19T04:53:40;0;;;0;;
49456;SDS011;35352;51.480;-0.862;2022-08-19T04:56:09;1;;;0;;
49456;SDS011;35352;51.480;-0.862;2022-08-19T04:58:40;0;;;0;;
49456;SDS011;35352;51.480;-0.862;2022-08-19T05:01:13;0;;;0;;
49456;SDS011;35352;51.480;-0.862;2022-08-19T05:03:43;0;;;0;;
49456;SDS011;35352;51.480;-0.862;2022-08-19T05:06:12;0;;;0;;
49456;SDS011;35352;51.480;-0.862;2022-08-19T05:08:41;0;;;0;;
49456;SDS011;35352;51.480;-0.862;2022-08-19T05:11:14;0;;;0;;
49456;SDS011;35352;51.480;-0.862;2022-08-19T05:13:44;0;;;0;;
49456;SDS011;35352;51.480;-0.862;2022-08-19T05:16:12;0;;;0;;
49456;SDS011;35352;51.480;-0.862;2022-08-19T05:18:40;0;;;0;;
49456;SDS011;35352;51.480;-0.862;2022-08-19T05:21:15;0;;;0;;
49456;SDS011;35352;51.480;-0.862;2022-08-19T05:23:45;0;;;0;;
49456;SDS011;35352;51.480;-0.862;2022-08-19T05:26:12;1;;;0;;
49456;SDS011;35352;51.480;-0.862;2022-08-19T05:28:39;0;;;0;;
49456;SDS011;35352;51.480;-0.862;2022-08-19T05:31:12;0;;;0;;
49456;SDS011;35352;51.480;-0.862;2022-08-19T05:33:39;0;;;0;;
49456;SDS011;35352;51.480;-0.862;2022-08-19T05:36:07;0;;;0;;
49456;SDS011;35352;51.480;-0.862;2022-08-19T05:38:35;2;;;0;;
49456;SDS011;35352;51.480;-0.862;2022-08-19T05:41:13;0;;;0;;
49456;SDS011;35352;51.480;-0.862;2022-08-19T05:43:41;2;;;1;;
49456;SDS011;35352;51.480;-0.862;2022-08-19T05:46:08;0;;;0;;
49456;SDS011;35352;51.480;-0.862;2022-08-19T05:48:44;1;;;0;;
49456;SDS011;35352;51.480;-0.862;2022-08-19T05:51:12;0;;;0;;
49456;SDS011;35352;51.480;-0.862;2022-08-19T05:53:39;0;;;0;;
49456;SDS011;35352;51.480;-0.862;2022-08-19T05:56:08;0;;;0;;
49456;SDS011;35352;51.480;-0.862;2022-08-19T05:58:38;0;;;0;;
49456;SDS011;35352;51.480;-0.862;2022-08-19T06:01:14;0;;;0;;
49456;SDS011;35352;51.480;-0.862;2022-08-19T06:03:43;0;;;0;;
49456;SDS011;35352;51.480;-0.862;2022-08-19T06:06:12;2;;;2;;
49456;SDS011;35352;51.480;-0.862;2022-08-19T06:08:41;0;;;0;;
49456;SDS011;35352;51.480;-0.862;2022-08-19T06:11:14;0;;;0;;
49456;SDS011;35352;51.480;-0.862;2022-08-19T06:13:45;0;;;0;;
49456;SDS011;35352;51.480;-0.862;2022-08-19T06:16:13;2;;;2;;
49456;SDS011;35352;51.480;-0.862;2022-08-19T06:18:42;1;;;1;;
49456;SDS011;35352;51.480;-0.862;2022-08-19T06:21:12;0;;;0;;
49456;SDS011;35352;51.480;-0.862;2022-08-19T06:23:39;2;;;2;;
49456;SDS011;35352;51.480;-0.862;2022-08-19T06:26:07;1;;;1;;
49456;SDS011;35352;51.480;-0.862;2022-08-19T06:28:39;4;;;1;;
49456;SDS011;35352;51.480;-0.862;2022-08-19T06:31:13;0;;;0;;
49456;SDS011;35352;51.480;-0.862;2022-08-19T06:33:42;1;;;1;;
49456;SDS011;35352;51.480;-0.862;2022-08-19T06:36:17;2;;;2;;
49456;SDS011;35352;51.480;-0.862;2022-08-19T06:38:45;1;;;1;;
49456;SDS011;35352;51.480;-0.862;2022-08-19T06:41:13;0;;;0;;
49456;SDS011;35352;51.480;-0.862;2022-08-19T06:43:40;1;;;1;;
49456;SDS011;35352;51.480;-0.862;2022-08-19T06:46:10;1;;;1;;
49456;SDS011;35352;51.480;-0.862;2022-08-19T06:48:39;0;;;0;;
49456;SDS011;35352;51.480;-0.862;2022-08-19T06:51:12;1;;;0;;
49456;SDS011;35352;51.480;-0.862;2022-08-19T06:55:40;0;;;0;;
49456;SDS011;35352;51.480;-0.862;2022-08-19T06:58:08;1;;;1;;
49456;SDS011;35352;51.480;-0.862;2022-08-19T07:01:13;0;;;0;;
49456;SDS011;35352;51.480;-0.862;2022-08-19T07:03:41;1;;;1;;
49456;SDS011;35352;51.480;-0.862;2022-08-19T07:06:09;2;;;2;;
49456;SDS011;35352;51.480;-0.862;2022-08-19T07:08:40;3;;;1;;
49456;SDS011;35352;51.480;-0.862;2022-08-19T07:11:14;0;;;0;;
49456;SDS011;35352;51.480;-0.862;2022-08-19T07:13:44;2;;;2;;
49456;SDS011;35352;51.480;-0.862;2022-08-19T07:16:17;1;;;1;;
49456;SDS011;35352;51.480;-0.862;2022-08-19T07:18:45;3;;;2;;
49456;SDS011;35352;51.480;-0.862;2022-08-19T07:21:14;0;;;0;;
49456;SDS011;35352;51.480;-0.862;2022-08-19T07:23:43;2;;;2;;
49456;SDS011;35352;51.480;-0.862;2022-08-19T07:26:13;2;;;2;;
49456;SDS011;35352;51.480;-0.862;2022-08-19T07:28:46;2;;;2;;
49456;SDS011;35352;51.480;-0.862;2022-08-19T07:31:15;2;;;2;;
49456;SDS011;35352;51.480;-0.862;2022-08-19T07:33:45;2;;;2;;
49456;SDS011;35352;51.480;-0.862;2022-08-19T07:36:15;2;;;2;;
49456;SDS011;35352;51.480;-0.862;2022-08-19T07:38:44;4;;;3;;
49456;SDS011;35352;51.480;-0.862;2022-08-19T07:41:14;0;;;0;;
49456;SDS011;35352;51.480;-0.862;2022-08-19T07:43:44;1;;;1;;
49456;SDS011;35352;51.480;-0.862;2022-08-19T07:46:12;1;;;1;;
49456;SDS011;35352;51.480;-0.862;2022-08-19T07:48:40;4;;;2;;
49456;SDS011;35352;51.480;-0.862;2022-08-19T07:51:13;0;;;0;;
49456;SDS011;35352;51.480;-0.862;2022-08-19T07:53:44;3;;;1;;
49456;SDS011;35352;51.480;-0.862;2022-08-19T07:56:12;2;;;2;;
49456;SDS011;35352;51.480;-0.862;2022-08-19T07:58:42;4;;;3;;
49456;SDS011;35352;51.480;-0.862;2022-08-19T08:01:17;0;;;0;;
49456;SDS011;35352;51.480;-0.862;2022-08-19T08:03:48;4;;;4;;
49456;SDS011;35352;51.480;-0.862;2022-08-19T08:06:19;2;;;2;;
49456;SDS011;35352;51.480;-0.862;2022-08-19T08:08:46;1;;;1;;
49456;SDS011;35352;51.480;-0.862;2022-08-19T08:11:13;1;;;1;;
49456;SDS011;35352;51.480;-0.862;2022-08-19T08:13:42;3;;;3;;
49456;SDS011;35352;51.480;-0.862;2022-08-19T08:16:10;5;;;5;;
49456;SDS011;35352;51.480;-0.862;2022-08-19T08:18:38;4;;;4;;
49456;SDS011;35352;51.480;-0.862;2022-08-19T08:21:14;1;;;1;;
49456;SDS011;35352;51.480;-0.862;2022-08-19T08:23:43;4;;;2;;
49456;SDS011;35352;51.480;-0.862;2022-08-19T08:26:11;2;;;2;;
49456;SDS011;35352;51.480;-0.862;2022-08-19T08:28:39;9;;;9;;
49456;SDS011;35352;51.480;-0.862;2022-08-19T08:31:14;1;;;1;;
49456;SDS011;35352;51.480;-0.862;2022-08-19T08:33:41;3;;;3;;
49456;SDS011;35352;51.480;-0.862;2022-08-19T08:36:08;4;;;4;;
49456;SDS011;35352;51.480;-0.862;2022-08-19T08:38:37;4;;;4;;
